Time;durP1;ratioP1;P1;durP2;ratioP2;P2;SDS_P1;SDS_P2;PMS_P1;PMS_P2;Temp;Humidity;BMP_temperature;BMP_pressure;BME280_temperature;BME280_humidity;BME280_pressure;Samples;Min_cycle;Max_cycle;Signal;HPM_P1;HPM_P2
2021/12/07 00:00:58;;;;;;;6.67;4.83;;;;;;;;;;5036413;28;20218;-77
2021/12/07 00:03:24;;;;;;;7.00;4.97;;;;;;;;;;5036277;28;20247;-75
2021/12/07 00:05:50;;;;;;;7.30;4.80;;;;;;;;;;5019334;28;20555;-75
2021/12/07 00:08:16;;;;;;;6.97;4.67;;;;;;;;;;5019336;28;20670;-75
2021/12/07 00:10:43;;;;;;;7.83;5.03;;;;;;;;;;5035423;28;20197;-75
2021/12/07 00:13:10;;;;;;;7.03;5.17;;;;;;;;;;5035685;28;20205;-75
2021/12/07 00:15:36;;;;;;;7.03;5.10;;;;;;;;;;5053321;28;20192;-75
2021/12/07 00:18:03;;;;;;;6.70;5.00;;;;;;;;;;5035543;28;20170;-75
2021/12/07 00:20:29;;;;;;;8.73;5.13;;;;;;;;;;5035202;28;20192;-75
2021/12/07 00:22:57;;;;;;;7.40;5.20;;;;;;;;;;5035476;28;20232;-75
2021/12/07 00:25:24;;;;;;;6.53;4.67;;;;;;;;;;5035563;28;20177;-76
2021/12/07 00:27:50;;;;;;;8.40;5.40;;;;;;;;;;5035268;28;20189;-75
2021/12/07 00:30:16;;;;;;;6.80;5.03;;;;;;;;;;5018635;28;20665;-75
2021/12/07 00:32:50;;;;;;;7.83;5.00;;;;;;;;;;5035038;28;20223;-75
2021/12/07 00:37:44;;;;;;;8.00;4.90;;;;;;;;;;5053099;28;20173;-75
2021/12/07 00:40:12;;;;;;;7.50;4.50;;;;;;;;;;5035624;28;20291;-75
2021/12/07 00:42:38;;;;;;;6.60;4.70;;;;;;;;;;5018581;28;20185;-75
2021/12/07 00:45:06;;;;;;;7.70;4.73;;;;;;;;;;5035083;28;20205;-75
2021/12/07 00:47:32;;;;;;;6.37;4.40;;;;;;;;;;5034766;28;20173;-75
2021/12/07 00:49:59;;;;;;;6.23;4.50;;;;;;;;;;5018607;28;20209;-75
2021/12/07 00:52:25;;;;;;;7.17;4.93;;;;;;;;;;5034856;28;20182;-75
2021/12/07 00:54:52;;;;;;;7.40;4.90;;;;;;;;;;5034908;28;20201;-75
2021/12/07 00:57:20;;;;;;;7.90;5.37;;;;;;;;;;5034901;28;20228;-75
2021/12/07 00:59:46;;;;;;;6.80;4.83;;;;;;;;;;5034806;28;20194;-75
2021/12/07 01:02:12;;;;;;;7.37;5.03;;;;;;;;;;5019277;28;20273;-75
2021/12/07 01:04:39;;;;;;;6.13;4.30;;;;;;;;;;5020138;28;20284;-74
2021/12/07 01:07:17;;;;;;;6.97;4.80;;;;;;;;;;5020568;28;20181;-75
2021/12/07 01:26:10;;;;;;;9.27;6.03;;;;;;;;;;5053669;28;20231;-75
2021/12/07 01:28:41;;;;;;;10.40;7.03;;;;;;;;;;5018631;28;20272;-75
2021/12/07 01:31:26;;;;;;;10.60;6.43;;;;;;;;;;5019329;28;20201;-75
2021/12/07 01:34:15;;;;;;;9.37;5.87;;;;;;;;;;5022452;28;20213;-75
2021/12/07 01:47:49;;;;;;;9.57;6.10;;;;;;;;;;5034487;28;20182;-75
2021/12/07 01:52:56;;;;;;;9.37;5.90;;;;;;;;;;5052013;28;20181;-75
2021/12/07 01:59:32;;;;;;;8.37;6.00;;;;;;;;;;5037540;28;20198;-75
2021/12/07 02:00:55;;;;;;;9.60;6.20;;;;;;;;;;5054479;28;20208;-75
2021/12/07 02:03:22;;;;;;;9.20;5.73;;;;;;;;;;5056045;28;20166;-75
2021/12/07 02:05:48;;;;;;;8.17;5.20;;;;;;;;;;5056019;28;20169;-75
2021/12/07 02:08:14;;;;;;;8.30;5.30;;;;;;;;;;5038731;28;20544;-75
2021/12/07 02:10:41;;;;;;;6.93;4.30;;;;;;;;;;5038127;28;20210;-75
2021/12/07 02:13:21;;;;;;;6.07;4.30;;;;;;;;;;5057333;28;20195;-75
2021/12/07 02:15:48;;;;;;;7.13;4.20;;;;;;;;;;5039310;28;20182;-75
2021/12/07 02:18:14;;;;;;;7.00;4.00;;;;;;;;;;5037981;28;20308;-75
2021/12/07 02:20:40;;;;;;;5.67;4.03;;;;;;;;;;5021952;28;20209;-75
2021/12/07 02:23:06;;;;;;;5.87;3.90;;;;;;;;;;5022264;28;20220;-75
2021/12/07 02:25:33;;;;;;;5.47;3.63;;;;;;;;;;5038212;28;20261;-75
2021/12/07 02:27:59;;;;;;;6.57;3.40;;;;;;;;;;5038615;28;20187;-75
2021/12/07 02:30:26;;;;;;;5.17;3.50;;;;;;;;;;5037517;28;20192;-75
2021/12/07 02:32:54;;;;;;;4.37;2.90;;;;;;;;;;5021127;28;20659;-75
2021/12/07 02:35:25;;;;;;;5.23;3.23;;;;;;;;;;5037594;28;20176;-75
2021/12/07 02:37:52;;;;;;;3.60;2.80;;;;;;;;;;5021691;28;20276;-75
2021/12/07 02:40:18;;;;;;;4.27;2.87;;;;;;;;;;5037223;28;20223;-75
2021/12/07 02:42:44;;;;;;;2.80;2.30;;;;;;;;;;5037662;28;20180;-75
2021/12/07 02:45:10;;;;;;;2.90;2.20;;;;;;;;;;5037831;28;20177;-75
2021/12/07 02:47:37;;;;;;;3.83;2.50;;;;;;;;;;5021718;28;20579;-75
2021/12/07 02:50:04;;;;;;;3.23;2.50;;;;;;;;;;5056893;28;20194;-75
2021/12/07 02:52:30;;;;;;;3.20;2.00;;;;;;;;;;5038864;28;20228;-75
2021/12/07 02:54:57;;;;;;;2.40;2.03;;;;;;;;;;5022995;28;20259;-75
2021/12/07 02:57:23;;;;;;;2.97;2.40;;;;;;;;;;5023209;28;20188;-75
2021/12/07 02:59:58;;;;;;;2.43;1.80;;;;;;;;;;5022007;28;20255;-74
2021/12/07 03:02:25;;;;;;;2.20;1.90;;;;;;;;;;5023469;28;20177;-75
2021/12/07 03:05:35;;;;;;;3.97;1.90;;;;;;;;;;5057645;28;20177;-75
2021/12/07 03:26:40;;;;;;;2.50;2.03;;;;;;;;;;5041605;28;20192;-75
2021/12/07 03:29:06;;;;;;;2.17;1.90;;;;;;;;;;5021517;28;20215;-74
2021/12/07 03:31:33;;;;;;;2.13;1.90;;;;;;;;;;5056767;28;20173;-75
2021/12/07 03:34:00;;;;;;;2.57;1.93;;;;;;;;;;5039172;28;20212;-75
2021/12/07 03:36:27;;;;;;;2.43;1.90;;;;;;;;;;5039503;28;20188;-75
2021/12/07 03:38:53;;;;;;;2.63;1.80;;;;;;;;;;5040080;28;20184;-75
2021/12/07 03:41:19;;;;;;;2.13;1.87;;;;;;;;;;5038458;28;20189;-75
2021/12/07 03:43:46;;;;;;;2.10;1.80;;;;;;;;;;5039205;28;20177;-75
2021/12/07 03:46:13;;;;;;;1.97;1.73;;;;;;;;;;5038383;28;20189;-75
2021/12/07 03:48:40;;;;;;;1.70;1.60;;;;;;;;;;5021222;28;20193;-75
2021/12/07 03:51:06;;;;;;;2.53;2.13;;;;;;;;;;5038955;28;20216;-74
2021/12/07 03:53:32;;;;;;;2.43;1.97;;;;;;;;;;5038330;28;20213;-75
2021/12/07 03:55:59;;;;;;;2.87;2.13;;;;;;;;;;5038113;28;20265;-75
2021/12/07 03:58:25;;;;;;;2.80;2.23;;;;;;;;;;5020648;28;20187;-75
2021/12/07 04:00:51;;;;;;;2.67;2.07;;;;;;;;;;5054038;28;20205;-75
2021/12/07 04:03:18;;;;;;;2.23;2.03;;;;;;;;;;5036947;28;20185;-75
2021/12/07 04:05:47;;;;;;;2.60;2.17;;;;;;;;;;5020010;28;20272;-75
2021/12/07 04:08:14;;;;;;;2.70;2.03;;;;;;;;;;5020030;28;20189;-75
2021/12/07 04:10:40;;;;;;;2.40;1.80;;;;;;;;;;5035985;28;20228;-75
2021/12/07 04:13:06;;;;;;;2.27;1.90;;;;;;;;;;5019971;28;20185;-75
2021/12/07 04:15:32;;;;;;;3.23;2.17;;;;;;;;;;5035576;28;20670;-75
2021/12/07 04:17:58;;;;;;;2.27;1.90;;;;;;;;;;5035537;28;20199;-75
2021/12/07 04:20:24;;;;;;;2.30;2.10;;;;;;;;;;5035206;28;20231;-75
2021/12/07 04:22:51;;;;;;;2.87;2.30;;;;;;;;;;5018651;28;20173;-74
2021/12/07 04:25:17;;;;;;;2.13;1.80;;;;;;;;;;5035437;28;20181;-75
2021/12/07 04:27:44;;;;;;;2.40;2.10;;;;;;;;;;5018947;28;20186;-75
2021/12/07 04:30:13;;;;;;;2.73;2.10;;;;;;;;;;5036018;28;20200;-75
2021/12/07 04:32:39;;;;;;;2.37;1.70;;;;;;;;;;5019808;28;20284;-75
2021/12/07 04:35:06;;;;;;;2.20;2.00;;;;;;;;;;5021195;28;20213;-75
2021/12/07 04:37:32;;;;;;;2.13;1.80;;;;;;;;;;5022256;28;20205;-75
2021/12/07 04:39:58;;;;;;;2.60;1.83;;;;;;;;;;5036164;28;20263;-75
2021/12/07 04:42:25;;;;;;;2.20;1.80;;;;;;;;;;5019565;28;20279;-75
2021/12/07 04:44:55;;;;;;;2.20;2.00;;;;;;;;;;5019518;28;20223;-75
2021/12/07 04:47:32;;;;;;;1.70;1.60;;;;;;;;;;5035725;28;20310;-75
2021/12/07 04:58:08;;;;;;;2.07;1.83;;;;;;;;;;5053934;28;20204;-75
2021/12/07 05:00:34;;;;;;;2.43;2.13;;;;;;;;;;5052401;28;20190;-75
2021/12/07 05:03:04;;;;;;;2.13;1.90;;;;;;;;;;5052809;28;20169;-75
2021/12/07 05:05:35;;;;;;;2.73;2.00;;;;;;;;;;5035649;28;20173;-75
2021/12/07 05:08:05;;;;;;;3.17;2.10;;;;;;;;;;5019030;28;20648;-76
2021/12/07 05:10:35;;;;;;;2.40;2.20;;;;;;;;;;5018810;28;20569;-75
2021/12/07 05:16:06;;;;;;;2.30;1.80;;;;;;;;;;5043167;28;20172;-74
2021/12/07 05:39:46;;;;;;;1.70;1.60;;;;;;;;;;5039115;28;20220;-76
2021/12/07 05:42:12;;;;;;;1.93;1.70;;;;;;;;;;5021330;28;20181;-75
2021/12/07 05:44:38;;;;;;;2.30;2.07;;;;;;;;;;5037295;28;20206;-75
2021/12/07 05:47:05;;;;;;;2.60;2.00;;;;;;;;;;5021805;28;20180;-75
2021/12/07 05:49:31;;;;;;;2.20;1.80;;;;;;;;;;5021500;28;20292;-76
2021/12/07 05:51:57;;;;;;;2.03;1.73;;;;;;;;;;5021431;28;20189;-75
2021/12/07 05:54:24;;;;;;;2.30;1.97;;;;;;;;;;5056077;28;20192;-75
2021/12/07 05:56:50;;;;;;;2.23;2.03;;;;;;;;;;5038298;28;20177;-75
2021/12/07 05:59:16;;;;;;;2.33;2.13;;;;;;;;;;5055888;28;20660;-76
2021/12/07 06:01:42;;;;;;;2.27;2.07;;;;;;;;;;5021501;28;20197;-75
2021/12/07 06:04:08;;;;;;;2.80;2.20;;;;;;;;;;5020432;28;20683;-75
2021/12/07 06:06:34;;;;;;;2.83;2.37;;;;;;;;;;5036338;28;20190;-76
2021/12/07 06:09:00;;;;;;;2.80;2.10;;;;;;;;;;5035929;28;20178;-75
2021/12/07 06:11:26;;;;;;;2.97;2.57;;;;;;;;;;5019390;28;20216;-75
2021/12/07 06:13:52;;;;;;;3.23;2.90;;;;;;;;;;5036757;28;20223;-75
2021/12/07 06:16:19;;;;;;;2.60;2.40;;;;;;;;;;5036897;28;20174;-76
2021/12/07 06:18:45;;;;;;;2.90;2.60;;;;;;;;;;5021470;28;20196;-75
2021/12/07 06:21:12;;;;;;;4.43;3.80;;;;;;;;;;5036610;28;20189;-76
2021/12/07 06:23:38;;;;;;;2.87;2.40;;;;;;;;;;5052933;28;20198;-77
2021/12/07 06:26:04;;;;;;;3.50;2.50;;;;;;;;;;5034142;28;20166;-77
2021/12/07 06:28:30;;;;;;;3.83;2.53;;;;;;;;;;5034285;28;20644;-76
2021/12/07 06:30:56;;;;;;;3.77;3.20;;;;;;;;;;5033874;28;20608;-78
2021/12/07 06:33:24;;;;;;;2.70;2.50;;;;;;;;;;5034187;28;20231;-78
2021/12/07 06:35:56;;;;;;;3.30;2.73;;;;;;;;;;5017671;28;20635;-77
2021/12/07 06:38:22;;;;;;;3.10;2.00;;;;;;;;;;5018221;28;20185;-76
2021/12/07 06:40:49;;;;;;;2.40;2.20;;;;;;;;;;5034221;28;20271;-75
2021/12/07 06:43:15;;;;;;;5.77;3.90;;;;;;;;;;5033618;28;20212;-76
2021/12/07 06:45:41;;;;;;;5.60;3.57;;;;;;;;;;5018162;28;20178;-77
2021/12/07 06:48:07;;;;;;;2.77;2.27;;;;;;;;;;5037372;28;20174;-76
2021/12/07 06:50:34;;;;;;;5.30;4.30;;;;;;;;;;5020895;28;20702;-76
2021/12/07 06:53:00;;;;;;;3.23;2.17;;;;;;;;;;5037197;28;20175;-77
2021/12/07 06:55:27;;;;;;;2.23;2.03;;;;;;;;;;5037472;28;20205;-74
2021/12/07 06:57:53;;;;;;;3.57;2.90;;;;;;;;;;5020920;28;20277;-74
2021/12/07 07:00:19;;;;;;;2.67;2.00;;;;;;;;;;5036771;28;20193;-77
2021/12/07 07:02:46;;;;;;;2.60;1.67;;;;;;;;;;5021791;28;20189;-74
2021/12/07 07:05:12;;;;;;;3.03;1.70;;;;;;;;;;5037703;28;20209;-74
2021/12/07 07:07:39;;;;;;;1.60;1.50;;;;;;;;;;5037702;28;20173;-76
2021/12/07 07:10:05;;;;;;;1.50;1.40;;;;;;;;;;5037166;28;20224;-79
2021/12/07 07:12:31;;;;;;;1.40;1.30;;;;;;;;;;5037612;28;20265;-77
2021/12/07 07:14:57;;;;;;;1.40;1.30;;;;;;;;;;5036887;28;20188;-76
2021/12/07 07:17:24;;;;;;;1.30;1.20;;;;;;;;;;5054825;28;20177;-77
2021/12/07 07:19:50;;;;;;;1.63;1.50;;;;;;;;;;5020146;28;20205;-75
2021/12/07 07:22:16;;;;;;;1.47;1.37;;;;;;;;;;5054454;28;20201;-76
2021/12/07 07:24:43;;;;;;;1.50;1.40;;;;;;;;;;5020284;28;20210;-77
2021/12/07 07:27:09;;;;;;;1.50;1.40;;;;;;;;;;5036825;28;20178;-77
2021/12/07 07:29:35;;;;;;;1.53;1.43;;;;;;;;;;5036273;28;20198;-76
2021/12/07 07:32:01;;;;;;;1.73;1.53;;;;;;;;;;5036837;28;20181;-75
2021/12/07 07:34:27;;;;;;;1.50;1.23;;;;;;;;;;5054254;28;20209;-76
2021/12/07 07:36:54;;;;;;;1.97;1.53;;;;;;;;;;5036602;28;20178;-76
2021/12/07 07:39:20;;;;;;;2.97;1.30;;;;;;;;;;5020213;28;20214;-77
2021/12/07 07:41:46;;;;;;;1.50;1.40;;;;;;;;;;5019827;28;20189;-77
2021/12/07 07:44:12;;;;;;;2.23;2.00;;;;;;;;;;5036673;28;20205;-76
2021/12/07 07:46:38;;;;;;;3.50;2.20;;;;;;;;;;5036422;28;20235;-76
2021/12/07 07:49:04;;;;;;;5.00;3.80;;;;;;;;;;5019586;28;20243;-76
2021/12/07 07:51:31;;;;;;;6.43;4.57;;;;;;;;;;5019623;28;20173;-76
2021/12/07 07:53:59;;;;;;;3.80;3.20;;;;;;;;;;5036183;28;20712;-76
2021/12/07 07:56:25;;;;;;;5.03;4.03;;;;;;;;;;5036137;28;20183;-76
2021/12/07 07:58:51;;;;;;;2.90;2.20;;;;;;;;;;5019104;28;20668;-76
2021/12/07 08:01:17;;;;;;;3.27;2.27;;;;;;;;;;5019353;28;20186;-76
2021/12/07 08:03:43;;;;;;;3.60;2.33;;;;;;;;;;5019807;28;20216;-75
2021/12/07 08:06:09;;;;;;;4.50;3.63;;;;;;;;;;5036155;28;20381;-76
2021/12/07 08:08:35;;;;;;;2.83;2.53;;;;;;;;;;5019464;28;20196;-76
2021/12/07 08:11:01;;;;;;;4.00;2.37;;;;;;;;;;5035496;28;20203;-76
2021/12/07 08:13:30;;;;;;;3.37;2.50;;;;;;;;;;5035678;28;20174;-76
2021/12/07 08:15:57;;;;;;;3.40;2.80;;;;;;;;;;5019814;28;20173;-76
2021/12/07 08:18:23;;;;;;;3.57;2.40;;;;;;;;;;5035607;28;20174;-76
2021/12/07 08:20:49;;;;;;;2.20;2.00;;;;;;;;;;5019206;28;20194;-75
2021/12/07 08:23:15;;;;;;;2.60;1.90;;;;;;;;;;5036135;28;20174;-76
2021/12/07 08:25:44;;;;;;;3.03;1.80;;;;;;;;;;5035569;28;20197;-76
2021/12/07 08:28:13;;;;;;;2.20;2.00;;;;;;;;;;5053147;28;20687;-76
2021/12/07 08:30:39;;;;;;;5.90;3.80;;;;;;;;;;5018645;28;20218;-76
2021/12/07 08:33:05;;;;;;;5.53;4.53;;;;;;;;;;5035434;28;20179;-76
2021/12/07 08:35:32;;;;;;;5.43;4.37;;;;;;;;;;5019196;28;20204;-76
2021/12/07 08:37:58;;;;;;;8.07;5.43;;;;;;;;;;5035122;28;20178;-76
2021/12/07 08:40:25;;;;;;;6.60;5.33;;;;;;;;;;5034973;28;20248;-76
2021/12/07 08:42:51;;;;;;;3.10;2.80;;;;;;;;;;5035426;28;20636;-76
2021/12/07 08:45:18;;;;;;;3.60;3.30;;;;;;;;;;5035232;28;20688;-76
2021/12/07 08:47:46;;;;;;;3.77;3.00;;;;;;;;;;5018934;28;20174;-79
2021/12/07 08:50:20;;;;;;;3.63;2.60;;;;;;;;;;5035036;28;20197;-76
2021/12/07 08:52:47;;;;;;;4.33;3.60;;;;;;;;;;5035024;28;20264;-76
2021/12/07 09:00:26;;;;;;;5.33;3.40;;;;;;;;;;5067649;28;20257;-76
2021/12/07 09:02:52;;;;;;;5.17;3.80;;;;;;;;;;5053558;28;20176;-76
2021/12/07 09:05:18;;;;;;;6.57;5.20;;;;;;;;;;5018458;28;20210;-76
2021/12/07 09:07:45;;;;;;;4.20;3.80;;;;;;;;;;5035083;28;20605;-76
2021/12/07 09:10:12;;;;;;;4.70;4.00;;;;;;;;;;5035047;28;20202;-76
2021/12/07 09:12:38;;;;;;;5.40;4.07;;;;;;;;;;5051965;28;20625;-77
2021/12/07 09:15:04;;;;;;;4.53;3.00;;;;;;;;;;5032036;28;20185;-76
2021/12/07 09:17:30;;;;;;;4.97;2.33;;;;;;;;;;5018794;28;20189;-77
2021/12/07 09:19:56;;;;;;;2.97;2.57;;;;;;;;;;5018262;28;20201;-76
2021/12/07 09:22:23;;;;;;;4.93;3.70;;;;;;;;;;5034312;28;20173;-77
2021/12/07 09:24:49;;;;;;;3.70;2.80;;;;;;;;;;5034716;28;20209;-77
2021/12/07 09:27:15;;;;;;;3.90;3.17;;;;;;;;;;5018258;28;20201;-77
2021/12/07 09:29:41;;;;;;;3.83;3.00;;;;;;;;;;5051268;28;20243;-77
2021/12/07 09:32:08;;;;;;;3.13;2.47;;;;;;;;;;5034106;28;20188;-77
2021/12/07 09:34:34;;;;;;;3.37;2.90;;;;;;;;;;5034258;28;20173;-77
2021/12/07 09:37:00;;;;;;;4.37;3.57;;;;;;;;;;5017975;28;20801;-77
2021/12/07 09:39:26;;;;;;;5.53;3.87;;;;;;;;;;5034107;28;20215;-77
2021/12/07 09:41:52;;;;;;;4.87;3.47;;;;;;;;;;5034165;28;20231;-77
2021/12/07 09:44:18;;;;;;;8.70;5.17;;;;;;;;;;5034263;28;20202;-77
2021/12/07 09:46:44;;;;;;;7.10;4.90;;;;;;;;;;5017791;28;20274;-77
2021/12/07 09:49:11;;;;;;;5.73;4.10;;;;;;;;;;5017966;28;20205;-77
2021/12/07 09:51:37;;;;;;;5.47;4.50;;;;;;;;;;5034259;28;20173;-77
2021/12/07 09:54:04;;;;;;;7.00;4.60;;;;;;;;;;5031160;28;20181;-77
2021/12/07 09:56:30;;;;;;;11.43;6.33;;;;;;;;;;5039984;28;20269;-77
2021/12/07 09:58:57;;;;;;;7.90;5.93;;;;;;;;;;5033951;28;20246;-77
2021/12/07 10:01:24;;;;;;;11.87;8.17;;;;;;;;;;5052006;28;20178;-77
2021/12/07 10:03:51;;;;;;;11.70;7.73;;;;;;;;;;5034385;28;20209;-77
2021/12/07 10:06:18;;;;;;;10.67;6.43;;;;;;;;;;5053186;28;20546;-78
2021/12/07 10:08:44;;;;;;;9.30;7.23;;;;;;;;;;5035725;28;20170;-78
2021/12/07 11:01:58;;;;;;;7.30;5.93;;;;;;;;;;4935432;29;20226;-77
2021/12/07 11:07:54;;;;;;;8.50;4.90;;;;;;;;;;4916695;29;20245;-75
2021/12/07 11:10:28;;;;;;;10.30;5.17;;;;;;;;;;4916223;29;20202;-77
2021/12/07 11:13:02;;;;;;;8.47;5.63;;;;;;;;;;4941212;28;20180;-76
2021/12/07 11:15:29;;;;;;;9.73;6.40;;;;;;;;;;4973805;28;20182;-76
2021/12/07 11:18:02;;;;;;;10.13;5.83;;;;;;;;;;5006093;28;20189;-75
2021/12/07 11:20:29;;;;;;;14.20;6.50;;;;;;;;;;5037075;28;20193;-76
2021/12/07 11:23:00;;;;;;;13.13;6.43;;;;;;;;;;5021039;28;20212;-76
2021/12/07 11:31:26;;;;;;;11.43;6.93;;;;;;;;;;5054779;28;20732;-77
2021/12/07 11:34:12;;;;;;;11.57;6.80;;;;;;;;;;5053814;28;20179;-77
2021/12/07 11:36:40;;;;;;;14.13;7.30;;;;;;;;;;5023519;28;20227;-74
2021/12/07 11:39:26;;;;;;;9.93;5.83;;;;;;;;;;5020720;28;20209;-74
2021/12/07 11:42:00;;;;;;;10.47;5.80;;;;;;;;;;5023115;28;20697;-75
2021/12/07 11:44:27;;;;;;;7.73;5.60;;;;;;;;;;5020159;28;20212;-74
2021/12/07 11:46:53;;;;;;;6.90;4.87;;;;;;;;;;5037030;28;20172;-76
2021/12/07 11:49:22;;;;;;;8.10;4.80;;;;;;;;;;5036795;28;20223;-76
2021/12/07 11:51:50;;;;;;;5.63;4.33;;;;;;;;;;5020149;28;20188;-76
2021/12/07 11:54:17;;;;;;;7.73;5.30;;;;;;;;;;5020261;28;20191;-76
2021/12/07 11:56:43;;;;;;;8.37;5.13;;;;;;;;;;5036867;28;20184;-76
2021/12/07 11:59:10;;;;;;;13.27;7.50;;;;;;;;;;5036773;28;20298;-76
2021/12/07 12:01:37;;;;;;;9.23;5.30;;;;;;;;;;5020336;28;20185;-76
2021/12/07 12:04:03;;;;;;;16.67;9.73;;;;;;;;;;5036921;28;20208;-76
2021/12/07 12:06:30;;;;;;;16.47;9.43;;;;;;;;;;5054829;28;20206;-77
2021/12/07 12:08:57;;;;;;;10.60;6.23;;;;;;;;;;5036268;28;20176;-76
2021/12/07 12:11:32;;;;;;;12.13;6.60;;;;;;;;;;5054056;28;20174;-76
2021/12/07 12:14:10;;;;;;;9.70;5.60;;;;;;;;;;5054225;28;20166;-76
2021/12/07 12:16:36;;;;;;;12.27;5.43;;;;;;;;;;5036361;28;20218;-76
2021/12/07 12:19:32;;;;;;;8.17;4.93;;;;;;;;;;5036242;28;20185;-76
2021/12/07 12:21:58;;;;;;;12.87;6.20;;;;;;;;;;5036216;28;20216;-76
2021/12/07 12:24:44;;;;;;;15.87;7.83;;;;;;;;;;5053920;28;20198;-76
2021/12/07 12:27:21;;;;;;;9.70;5.60;;;;;;;;;;5053853;28;20180;-77
2021/12/07 12:40:11;;;;;;;11.03;5.27;;;;;;;;;;5034185;23;20222;-77
2021/12/07 12:42:40;;;;;;;10.17;5.53;;;;;;;;;;5072808;28;20166;-78
2021/12/07 12:45:12;;;;;;;7.87;5.30;;;;;;;;;;5054751;28;20261;-78
2021/12/07 12:47:39;;;;;;;8.60;5.60;;;;;;;;;;5055809;28;20171;-79
2021/12/07 12:50:13;;;;;;;7.63;4.90;;;;;;;;;;5056249;28;20678;-80
2021/12/07 12:52:44;;;;;;;11.10;5.07;;;;;;;;;;5038835;28;20179;-80
2021/12/07 12:55:27;;;;;;;8.20;5.00;;;;;;;;;;5055125;28;20189;-80
2021/12/07 12:57:53;;;;;;;9.10;4.90;;;;;;;;;;5055780;28;20185;-80
2021/12/07 13:00:19;;;;;;;10.13;4.97;;;;;;;;;;5055878;28;20226;-80
2021/12/07 13:02:53;;;;;;;7.27;4.67;;;;;;;;;;5039322;28;20183;-80
2021/12/07 13:05:33;;;;;;;6.77;4.37;;;;;;;;;;5039157;28;20214;-80
2021/12/07 13:08:13;;;;;;;9.27;4.70;;;;;;;;;;5055757;28;20213;-80
2021/12/07 13:10:55;;;;;;;8.50;4.20;;;;;;;;;;5073000;28;20551;-80
2021/12/07 13:13:30;;;;;;;7.53;4.57;;;;;;;;;;5055821;28;20175;-80
2021/12/07 13:15:57;;;;;;;9.00;4.50;;;;;;;;;;5055343;28;20186;-80
2021/12/07 13:18:27;;;;;;;7.33;4.47;;;;;;;;;;5055707;28;20179;-80
2021/12/07 13:20:53;;;;;;;9.37;4.70;;;;;;;;;;5038397;28;20746;-79
2021/12/07 13:23:19;;;;;;;8.33;5.37;;;;;;;;;;5037936;28;20184;-80
2021/12/07 13:25:47;;;;;;;9.23;5.50;;;;;;;;;;5054471;28;20221;-79
2021/12/07 13:28:16;;;;;;;8.60;5.07;;;;;;;;;;5055075;28;20256;-79
2021/12/07 13:30:45;;;;;;;10.07;4.93;;;;;;;;;;5054021;28;20204;-80
2021/12/07 13:33:20;;;;;;;9.57;5.40;;;;;;;;;;5053620;28;20270;-80
2021/12/07 13:35:46;;;;;;;8.07;5.07;;;;;;;;;;5054471;28;20686;-80
2021/12/07 13:38:26;;;;;;;8.07;5.57;;;;;;;;;;5037602;28;20656;-80
2021/12/07 13:40:54;;;;;;;8.80;5.83;;;;;;;;;;5053867;28;20210;-80
2021/12/07 13:43:34;;;;;;;8.10;5.00;;;;;;;;;;5053256;28;20471;-79
2021/12/07 13:46:07;;;;;;;13.97;6.77;;;;;;;;;;5037947;28;20386;-80
2021/12/07 13:48:33;;;;;;;11.53;4.80;;;;;;;;;;5054128;28;20181;-80
2021/12/07 13:50:59;;;;;;;9.20;5.13;;;;;;;;;;5053813;28;20191;-80
2021/12/07 13:53:26;;;;;;;9.23;4.20;;;;;;;;;;5054316;28;20228;-80
2021/12/07 13:55:52;;;;;;;10.03;4.07;;;;;;;;;;5055532;28;20176;-79
2021/12/07 13:58:18;;;;;;;10.00;4.87;;;;;;;;;;5058256;28;20192;-80
2021/12/07 14:00:45;;;;;;;15.50;5.97;;;;;;;;;;5058874;28;20559;-79
2021/12/07 14:03:13;;;;;;;6.97;4.27;;;;;;;;;;5063320;28;20179;-79
2021/12/07 14:05:42;;;;;;;10.70;5.33;;;;;;;;;;5058059;28;20213;-81
2021/12/07 14:08:12;;;;;;;8.33;3.90;;;;;;;;;;5041545;28;20177;-80
2021/12/07 14:10:52;;;;;;;7.13;4.47;;;;;;;;;;5041116;28;20572;-80
2021/12/07 14:13:19;;;;;;;7.97;4.87;;;;;;;;;;5058229;28;20179;-79
2021/12/07 14:15:47;;;;;;;9.87;5.70;;;;;;;;;;5041293;28;20183;-80
2021/12/07 14:18:15;;;;;;;5.33;3.40;;;;;;;;;;5041828;28;20193;-79
2021/12/07 14:20:42;;;;;;;6.43;3.77;;;;;;;;;;5041550;28;20554;-78
2021/12/07 14:23:18;;;;;;;7.33;3.37;;;;;;;;;;5058102;28;20266;-80
2021/12/07 14:25:58;;;;;;;5.97;2.77;;;;;;;;;;5058079;28;20203;-79
2021/12/07 14:28:25;;;;;;;5.63;3.17;;;;;;;;;;5041637;28;20183;-79
2021/12/07 14:30:51;;;;;;;6.73;3.50;;;;;;;;;;5057958;28;20202;-79
2021/12/07 14:33:18;;;;;;;7.27;2.70;;;;;;;;;;5058291;28;20175;-79
2021/12/07 14:35:44;;;;;;;6.17;2.57;;;;;;;;;;5058098;28;20180;-79
2021/12/07 14:38:10;;;;;;;5.43;2.93;;;;;;;;;;5041518;28;20184;-79
2021/12/07 14:40:36;;;;;;;6.13;3.20;;;;;;;;;;5041336;28;20711;-80
2021/12/07 14:43:02;;;;;;;8.93;4.43;;;;;;;;;;5041389;28;20232;-80
2021/12/07 14:45:28;;;;;;;8.23;3.57;;;;;;;;;;5041614;28;20206;-80
2021/12/07 14:47:59;;;;;;;6.37;3.27;;;;;;;;;;5058170;28;20514;-80
2021/12/07 14:50:25;;;;;;;6.53;3.07;;;;;;;;;;5057629;28;20662;-82
2021/12/07 14:52:51;;;;;;;4.40;2.73;;;;;;;;;;5041374;28;20187;-82
2021/12/07 14:55:17;;;;;;;6.30;2.60;;;;;;;;;;5041266;28;20212;-81
2021/12/07 14:57:44;;;;;;;6.60;3.70;;;;;;;;;;5041459;28;20276;-80
2021/12/07 15:00:10;;;;;;;6.07;3.30;;;;;;;;;;5041287;28;20202;-80
2021/12/07 15:02:37;;;;;;;7.77;3.17;;;;;;;;;;5057620;28;20180;-79
2021/12/07 15:05:08;;;;;;;6.90;2.90;;;;;;;;;;5040935;28;20726;-80
2021/12/07 15:07:36;;;;;;;8.20;3.10;;;;;;;;;;5040662;28;20175;-80
2021/12/07 15:10:14;;;;;;;6.93;3.20;;;;;;;;;;5039049;28;20200;-80
2021/12/07 15:12:41;;;;;;;4.77;2.77;;;;;;;;;;5037390;28;20172;-80
2021/12/07 15:15:42;;;;;;;8.53;3.60;;;;;;;;;;5037335;28;20196;-80
2021/12/07 15:18:14;;;;;;;7.30;3.40;;;;;;;;;;5037543;28;20187;-81
2021/12/07 15:20:40;;;;;;;5.83;3.00;;;;;;;;;;5020866;28;20858;-80
2021/12/07 15:23:07;;;;;;;8.87;3.70;;;;;;;;;;5037137;28;20233;-79
2021/12/07 15:25:33;;;;;;;8.97;3.70;;;;;;;;;;5020924;28;20208;-79
2021/12/07 15:28:00;;;;;;;7.30;3.10;;;;;;;;;;5037304;28;20187;-80
2021/12/07 15:30:26;;;;;;;4.90;3.30;;;;;;;;;;5037150;28;20287;-81
2021/12/07 15:32:52;;;;;;;5.40;3.83;;;;;;;;;;5020927;28;20295;-80
2021/12/07 15:35:22;;;;;;;9.83;4.10;;;;;;;;;;5037151;28;20182;-80
2021/12/07 15:37:48;;;;;;;6.70;4.10;;;;;;;;;;5037111;28;20230;-80
2021/12/07 15:40:14;;;;;;;7.30;4.30;;;;;;;;;;5020590;28;20219;-80
2021/12/07 15:42:41;;;;;;;11.13;6.10;;;;;;;;;;5036967;28;20198;-80
2021/12/07 15:45:09;;;;;;;6.83;4.70;;;;;;;;;;5020585;28;20290;-79
2021/12/07 15:47:38;;;;;;;6.33;5.37;;;;;;;;;;5020339;28;20175;-80
2021/12/07 15:50:15;;;;;;;9.60;5.60;;;;;;;;;;5020621;28;20204;-80
2021/12/07 15:52:49;;;;;;;7.20;5.00;;;;;;;;;;5036702;28;20184;-79
2021/12/07 15:55:18;;;;;;;5.53;3.73;;;;;;;;;;5036475;28;20547;-79
2021/12/07 15:57:47;;;;;;;13.03;7.63;;;;;;;;;;5036752;28;20180;-80
2021/12/07 16:00:15;;;;;;;24.20;11.63;;;;;;;;;;5036526;28;20288;-80
2021/12/07 16:02:49;;;;;;;19.73;6.50;;;;;;;;;;5020226;28;20187;-79
2021/12/07 16:05:15;;;;;;;6.33;4.10;;;;;;;;;;5036532;28;20215;-80
2021/12/07 16:07:43;;;;;;;5.13;3.40;;;;;;;;;;5020196;28;20179;-80
2021/12/07 16:10:11;;;;;;;6.37;3.20;;;;;;;;;;5020825;28;20256;-77
2021/12/07 16:12:37;;;;;;;7.83;2.80;;;;;;;;;;5037403;28;20177;-77
2021/12/07 16:15:16;;;;;;;8.43;3.50;;;;;;;;;;5020176;28;20179;-77
2021/12/07 16:17:44;;;;;;;5.30;2.80;;;;;;;;;;5020562;28;20215;-76
2021/12/07 16:20:11;;;;;;;8.37;2.90;;;;;;;;;;5036434;28;20281;-76
2021/12/07 16:22:37;;;;;;;6.53;2.50;;;;;;;;;;5020658;28;20182;-77
2021/12/07 16:25:08;;;;;;;6.10;3.00;;;;;;;;;;5036414;28;20210;-76
2021/12/07 16:27:35;;;;;;;4.90;2.70;;;;;;;;;;5020444;28;20174;-76
2021/12/07 16:30:01;;;;;;;3.80;2.63;;;;;;;;;;5036638;28;20680;-76
2021/12/07 16:32:27;;;;;;;6.70;2.40;;;;;;;;;;5036603;28;20186;-77
2021/12/07 16:34:53;;;;;;;4.80;2.40;;;;;;;;;;5020397;28;20177;-76
2021/12/07 16:37:19;;;;;;;5.40;2.50;;;;;;;;;;5036273;28;20174;-77
2021/12/07 16:39:48;;;;;;;7.23;3.07;;;;;;;;;;5019881;28;20679;-77
2021/12/07 16:42:14;;;;;;;6.23;3.33;;;;;;;;;;5036225;28;20616;-77
2021/12/07 16:44:42;;;;;;;4.97;3.30;;;;;;;;;;5020183;28;20688;-76
2021/12/07 16:47:08;;;;;;;4.23;3.00;;;;;;;;;;5035989;28;20170;-78
2021/12/07 16:49:34;;;;;;;6.40;2.70;;;;;;;;;;5040254;28;20205;-79
2021/12/07 16:52:01;;;;;;;6.97;2.90;;;;;;;;;;5019236;28;20180;-78
2021/12/07 16:54:27;;;;;;;5.33;2.37;;;;;;;;;;5019118;28;20177;-78
2021/12/07 16:56:53;;;;;;;4.93;2.77;;;;;;;;;;5035515;28;20179;-78
2021/12/07 16:59:19;;;;;;;5.80;2.57;;;;;;;;;;5019376;28;20195;-78
2021/12/07 17:01:45;;;;;;;3.63;2.00;;;;;;;;;;5019052;28;20185;-78
2021/12/07 17:04:22;;;;;;;5.07;2.30;;;;;;;;;;5018800;28;20217;-78
2021/12/07 17:06:48;;;;;;;7.43;2.53;;;;;;;;;;5019206;28;20173;-79
2021/12/07 17:09:16;;;;;;;5.60;2.40;;;;;;;;;;5019236;28;20173;-78
2021/12/07 17:11:43;;;;;;;5.93;2.67;;;;;;;;;;5035443;28;20180;-79
2021/12/07 17:14:09;;;;;;;4.07;2.33;;;;;;;;;;5035424;28;20648;-78
2021/12/07 17:16:35;;;;;;;7.17;2.60;;;;;;;;;;5035494;28;20181;-78
2021/12/07 17:19:01;;;;;;;5.30;2.20;;;;;;;;;;5018999;28;20190;-78
2021/12/07 17:21:27;;;;;;;4.23;1.93;;;;;;;;;;5035176;28;20302;-78
2021/12/07 17:23:53;;;;;;;4.93;2.10;;;;;;;;;;5019007;28;20205;-78
2021/12/07 17:26:19;;;;;;;5.87;2.50;;;;;;;;;;5035412;28;20184;-78
2021/12/07 17:28:46;;;;;;;4.73;2.17;;;;;;;;;;5019131;28;20216;-78